sensor_id;sensor_type;location;lat;lon;timestamp;P1;durP1;ratioP1;P2;durP2;ratioP2
17947;SDS011;9099;47.958;11.366;2024-03-08T00:00:30;19.10;;;12.83;;
17947;SDS011;9099;47.958;11.366;2024-03-08T00:02:58;17.30;;;11.63;;
17947;SDS011;9099;47.958;11.366;2024-03-08T00:05:27;18.93;;;12.97;;
17947;SDS011;9099;47.958;11.366;2024-03-08T00:07:54;17.47;;;12.23;;
17947;SDS011;9099;47.958;11.366;2024-03-08T00:10:21;19.33;;;13.33;;
17947;SDS011;9099;47.958;11.366;2024-03-08T00:12:48;16.73;;;12.63;;
17947;SDS011;9099;47.958;11.366;2024-03-08T00:15:17;22.00;;;13.97;;
17947;SDS011;9099;47.958;11.366;2024-03-08T00:17:45;21.10;;;13.53;;
17947;SDS011;9099;47.958;11.366;2024-03-08T00:20:12;21.33;;;13.77;;
17947;SDS011;9099;47.958;11.366;2024-03-08T00:22:39;19.30;;;13.03;;
17947;SDS011;9099;47.958;11.366;2024-03-08T00:25:07;21.17;;;12.57;;
17947;SDS011;9099;47.958;11.366;2024-03-08T00:27:35;21.57;;;13.27;;
17947;SDS011;9099;47.958;11.366;2024-03-08T00:30:02;19.23;;;13.00;;
17947;SDS011;9099;47.958;11.366;2024-03-08T00:32:29;19.60;;;13.27;;
17947;SDS011;9099;47.958;11.366;2024-03-08T00:34:58;20.90;;;13.03;;
17947;SDS011;9099;47.958;11.366;2024-03-08T00:37:25;20.20;;;12.83;;
17947;SDS011;9099;47.958;11.366;2024-03-08T00:39:52;22.03;;;14.03;;
17947;SDS011;9099;47.958;11.366;2024-03-08T00:42:19;20.83;;;13.43;;
17947;SDS011;9099;47.958;11.366;2024-03-08T00:44:47;18.20;;;13.27;;
17947;SDS011;9099;47.958;11.366;2024-03-08T00:47:16;20.90;;;14.07;;
17947;SDS011;9099;47.958;11.366;2024-03-08T00:49:43;19.40;;;13.60;;
17947;SDS011;9099;47.958;11.366;2024-03-08T00:52:11;22.40;;;14.93;;
17947;SDS011;9099;47.958;11.366;2024-03-08T00:54:38;20.93;;;13.90;;
17947;SDS011;9099;47.958;11.366;2024-03-08T00:57:05;20.97;;;13.20;;
17947;SDS011;9099;47.958;11.366;2024-03-08T00:59:32;20.63;;;13.63;;
17947;SDS011;9099;47.958;11.366;2024-03-08T01:01:59;23.33;;;14.07;;
17947;SDS011;9099;47.958;11.366;2024-03-08T01:04:26;21.37;;;14.00;;
17947;SDS011;9099;47.958;11.366;2024-03-08T01:06:54;22.30;;;14.33;;
17947;SDS011;9099;47.958;11.366;2024-03-08T01:09:23;20.73;;;13.40;;
17947;SDS011;9099;47.958;11.366;2024-03-08T01:11:50;20.67;;;14.13;;
17947;SDS011;9099;47.958;11.366;2024-03-08T01:14:19;23.90;;;15.00;;
17947;SDS011;9099;47.958;11.366;2024-03-08T01:16:47;21.50;;;14.43;;
17947;SDS011;9099;47.958;11.366;2024-03-08T01:19:14;18.80;;;12.50;;
17947;SDS011;9099;47.958;11.366;2024-03-08T01:21:41;19.73;;;13.90;;
17947;SDS011;9099;47.958;11.366;2024-03-08T01:24:08;20.83;;;13.40;;
17947;SDS011;9099;47.958;11.366;2024-03-08T01:26:37;20.80;;;14.53;;
17947;SDS011;9099;47.958;11.366;2024-03-08T01:29:04;22.30;;;14.83;;
17947;SDS011;9099;47.958;11.366;2024-03-08T01:31:31;21.30;;;14.10;;
17947;SDS011;9099;47.958;11.366;2024-03-08T01:33:58;21.97;;;13.90;;
17947;SDS011;9099;47.958;11.366;2024-03-08T01:36:25;18.53;;;12.93;;
17947;SDS011;9099;47.958;11.366;2024-03-08T01:38:52;20.97;;;13.37;;
17947;SDS011;9099;47.958;11.366;2024-03-08T01:41:19;18.67;;;12.93;;
17947;SDS011;9099;47.958;11.366;2024-03-08T01:43:48;22.53;;;14.57;;
17947;SDS011;9099;47.958;11.366;2024-03-08T01:46:16;18.03;;;13.00;;
17947;SDS011;9099;47.958;11.366;2024-03-08T01:48:48;24.17;;;15.67;;
17947;SDS011;9099;47.958;11.366;2024-03-08T01:51:15;23.27;;;15.50;;
17947;SDS011;9099;47.958;11.366;2024-03-08T01:53:43;24.50;;;13.87;;
17947;SDS011;9099;47.958;11.366;2024-03-08T01:56:12;23.53;;;15.23;;
17947;SDS011;9099;47.958;11.366;2024-03-08T01:58:40;23.53;;;14.63;;
17947;SDS011;9099;47.958;11.366;2024-03-08T02:01:09;23.13;;;14.27;;
17947;SDS011;9099;47.958;11.366;2024-03-08T02:03:38;24.13;;;15.27;;
17947;SDS011;9099;47.958;11.366;2024-03-08T02:06:05;24.43;;;15.93;;
17947;SDS011;9099;47.958;11.366;2024-03-08T02:08:35;23.07;;;14.73;;
17947;SDS011;9099;47.958;11.366;2024-03-08T02:20:47;21.50;;;14.93;;
17947;SDS011;9099;47.958;11.366;2024-03-08T02:23:14;26.60;;;15.93;;
17947;SDS011;9099;47.958;11.366;2024-03-08T02:25:41;23.27;;;14.60;;
17947;SDS011;9099;47.958;11.366;2024-03-08T02:28:08;24.70;;;15.50;;
17947;SDS011;9099;47.958;11.366;2024-03-08T02:30:36;20.93;;;13.70;;
17947;SDS011;9099;47.958;11.366;2024-03-08T02:33:03;23.77;;;14.37;;
17947;SDS011;9099;47.958;11.366;2024-03-08T02:35:30;24.37;;;14.90;;
17947;SDS011;9099;47.958;11.366;2024-03-08T02:37:59;20.87;;;13.70;;
17947;SDS011;9099;47.958;11.366;2024-03-08T02:40:26;26.47;;;15.13;;
17947;SDS011;9099;47.958;11.366;2024-03-08T02:42:53;23.17;;;14.37;;
17947;SDS011;9099;47.958;11.366;2024-03-08T02:45:20;22.87;;;15.43;;
17947;SDS011;9099;47.958;11.366;2024-03-08T02:47:47;24.53;;;15.10;;
17947;SDS011;9099;47.958;11.366;2024-03-08T02:50:14;26.63;;;15.70;;
17947;SDS011;9099;47.958;11.366;2024-03-08T02:52:41;25.37;;;15.33;;
17947;SDS011;9099;47.958;11.366;2024-03-08T02:55:11;21.10;;;13.60;;
17947;SDS011;9099;47.958;11.366;2024-03-08T02:57:40;19.63;;;12.60;;
17947;SDS011;9099;47.958;11.366;2024-03-08T03:00:09;23.87;;;15.27;;
17947;SDS011;9099;47.958;11.366;2024-03-08T03:02:36;24.03;;;14.80;;
17947;SDS011;9099;47.958;11.366;2024-03-08T03:05:03;19.60;;;13.30;;
17947;SDS011;9099;47.958;11.366;2024-03-08T03:07:31;20.10;;;13.30;;
17947;SDS011;9099;47.958;11.366;2024-03-08T03:10:00;22.73;;;14.63;;
17947;SDS011;9099;47.958;11.366;2024-03-08T03:12:30;23.70;;;15.00;;
17947;SDS011;9099;47.958;11.366;2024-03-08T03:14:59;21.27;;;14.27;;
17947;SDS011;9099;47.958;11.366;2024-03-08T03:17:26;19.67;;;13.57;;
17947;SDS011;9099;47.958;11.366;2024-03-08T03:19:54;25.67;;;15.27;;
17947;SDS011;9099;47.958;11.366;2024-03-08T03:22:21;22.17;;;14.73;;
17947;SDS011;9099;47.958;11.366;2024-03-08T03:24:48;18.90;;;13.20;;
17947;SDS011;9099;47.958;11.366;2024-03-08T03:27:16;21.90;;;14.10;;
17947;SDS011;9099;47.958;11.366;2024-03-08T03:29:46;20.40;;;13.50;;
17947;SDS011;9099;47.958;11.366;2024-03-08T03:32:14;23.90;;;15.80;;
17947;SDS011;9099;47.958;11.366;2024-03-08T03:34:41;22.70;;;14.33;;
17947;SDS011;9099;47.958;11.366;2024-03-08T03:37:09;24.77;;;15.77;;
17947;SDS011;9099;47.958;11.366;2024-03-08T03:39:37;22.80;;;15.40;;
17947;SDS011;9099;47.958;11.366;2024-03-08T03:42:13;25.63;;;15.47;;
17947;SDS011;9099;47.958;11.366;2024-03-08T03:44:41;24.40;;;14.90;;
17947;SDS011;9099;47.958;11.366;2024-03-08T03:47:11;24.53;;;15.80;;
17947;SDS011;9099;47.958;11.366;2024-03-08T03:49:39;24.50;;;15.73;;
17947;SDS011;9099;47.958;11.366;2024-03-08T03:52:06;23.30;;;15.57;;
17947;SDS011;9099;47.958;11.366;2024-03-08T03:54:33;22.97;;;14.50;;
17947;SDS011;9099;47.958;11.366;2024-03-08T03:57:01;23.60;;;15.27;;
17947;SDS011;9099;47.958;11.366;2024-03-08T03:59:28;27.60;;;16.37;;
17947;SDS011;9099;47.958;11.366;2024-03-08T04:01:56;25.73;;;16.67;;
17947;SDS011;9099;47.958;11.366;2024-03-08T04:04:25;23.27;;;14.83;;
17947;SDS011;9099;47.958;11.366;2024-03-08T04:06:51;24.93;;;15.07;;
17947;SDS011;9099;47.958;11.366;2024-03-08T04:09:18;25.50;;;15.10;;
17947;SDS011;9099;47.958;11.366;2024-03-08T04:11:47;25.20;;;14.93;;
17947;SDS011;9099;47.958;11.366;2024-03-08T04:14:15;19.80;;;13.23;;
17947;SDS011;9099;47.958;11.366;2024-03-08T04:16:42;24.47;;;14.90;;
17947;SDS011;9099;47.958;11.366;2024-03-08T04:19:09;20.23;;;13.63;;
17947;SDS011;9099;47.958;11.366;2024-03-08T04:21:37;21.57;;;13.87;;
17947;SDS011;9099;47.958;11.366;2024-03-08T04:24:04;21.77;;;13.83;;
17947;SDS011;9099;47.958;11.366;2024-03-08T04:26:32;22.27;;;14.07;;
17947;SDS011;9099;47.958;11.366;2024-03-08T04:28:59;26.37;;;15.13;;
17947;SDS011;9099;47.958;11.366;2024-03-08T04:31:26;22.33;;;15.07;;
17947;SDS011;9099;47.958;11.366;2024-03-08T04:33:53;22.10;;;14.30;;
17947;SDS011;9099;47.958;11.366;2024-03-08T04:36:20;24.90;;;15.40;;
17947;SDS011;9099;47.958;11.366;2024-03-08T04:38:49;26.13;;;16.67;;
17947;SDS011;9099;47.958;11.366;2024-03-08T04:41:17;22.97;;;15.30;;
17947;SDS011;9099;47.958;11.366;2024-03-08T04:43:45;24.53;;;15.33;;
17947;SDS011;9099;47.958;11.366;2024-03-08T04:46:12;23.97;;;15.33;;
17947;SDS011;9099;47.958;11.366;2024-03-08T04:48:39;24.43;;;14.20;;
17947;SDS011;9099;47.958;11.366;2024-03-08T04:51:07;25.23;;;15.43;;
17947;SDS011;9099;47.958;11.366;2024-03-08T04:53:34;24.83;;;15.77;;
17947;SDS011;9099;47.958;11.366;2024-03-08T04:56:03;24.37;;;14.73;;
17947;SDS011;9099;47.958;11.366;2024-03-08T04:58:32;25.63;;;15.73;;
17947;SDS011;9099;47.958;11.366;2024-03-08T05:00:59;23.67;;;14.47;;
17947;SDS011;9099;47.958;11.366;2024-03-08T05:03:26;26.93;;;15.33;;
17947;SDS011;9099;47.958;11.366;2024-03-08T05:05:53;27.93;;;16.83;;
17947;SDS011;9099;47.958;11.366;2024-03-08T05:08:21;27.43;;;16.53;;
17947;SDS011;9099;47.958;11.366;2024-03-08T05:10:48;24.87;;;15.57;;
17947;SDS011;9099;47.958;11.366;2024-03-08T05:13:16;28.83;;;16.40;;
17947;SDS011;9099;47.958;11.366;2024-03-08T05:15:44;23.20;;;15.50;;
17947;SDS011;9099;47.958;11.366;2024-03-08T05:18:14;24.40;;;14.67;;
17947;SDS011;9099;47.958;11.366;2024-03-08T05:20:41;25.33;;;14.50;;
17947;SDS011;9099;47.958;11.366;2024-03-08T05:23:08;26.37;;;15.13;;
17947;SDS011;9099;47.958;11.366;2024-03-08T05:25:35;26.00;;;16.87;;
17947;SDS011;9099;47.958;11.366;2024-03-08T05:28:02;28.20;;;15.53;;
17947;SDS011;9099;47.958;11.366;2024-03-08T05:30:31;23.23;;;14.20;;
17947;SDS011;9099;47.958;11.366;2024-03-08T05:32:58;26.83;;;15.83;;
17947;SDS011;9099;47.958;11.366;2024-03-08T05:35:25;21.43;;;13.77;;
17947;SDS011;9099;47.958;11.366;2024-03-08T05:37:52;24.70;;;15.20;;
17947;SDS011;9099;47.958;11.366;2024-03-08T05:40:19;24.33;;;14.53;;
17947;SDS011;9099;47.958;11.366;2024-03-08T05:42:46;22.97;;;14.17;;
17947;SDS011;9099;47.958;11.366;2024-03-08T05:45:13;25.07;;;16.03;;
17947;SDS011;9099;47.958;11.366;2024-03-08T05:47:42;26.03;;;15.43;;
17947;SDS011;9099;47.958;11.366;2024-03-08T05:50:10;21.60;;;13.57;;
17947;SDS011;9099;47.958;11.366;2024-03-08T05:52:37;28.67;;;15.93;;
17947;SDS011;9099;47.958;11.366;2024-03-08T05:55:04;27.83;;;15.53;;
17947;SDS011;9099;47.958;11.366;2024-03-08T05:57:32;22.63;;;14.90;;
17947;SDS011;9099;47.958;11.366;2024-03-08T05:59:59;25.17;;;15.47;;
17947;SDS011;9099;47.958;11.366;2024-03-08T06:02:26;25.33;;;15.33;;
17947;SDS011;9099;47.958;11.366;2024-03-08T06:04:54;23.20;;;14.97;;
17947;SDS011;9099;47.958;11.366;2024-03-08T06:07:21;25.07;;;15.47;;
17947;SDS011;9099;47.958;11.366;2024-03-08T06:09:49;22.17;;;13.67;;
17947;SDS011;9099;47.958;11.366;2024-03-08T06:12:16;23.70;;;15.13;;
17947;SDS011;9099;47.958;11.366;2024-03-08T06:14:44;23.90;;;14.90;;
17947;SDS011;9099;47.958;11.366;2024-03-08T06:17:11;22.13;;;13.87;;
17947;SDS011;9099;47.958;11.366;2024-03-08T06:19:38;23.97;;;15.70;;
17947;SDS011;9099;47.958;11.366;2024-03-08T06:22:06;22.13;;;13.90;;
17947;SDS011;9099;47.958;11.366;2024-03-08T06:24:34;24.57;;;15.20;;
17947;SDS011;9099;47.958;11.366;2024-03-08T06:27:02;24.17;;;14.33;;
17947;SDS011;9099;47.958;11.366;2024-03-08T06:29:28;21.13;;;14.87;;
17947;SDS011;9099;47.958;11.366;2024-03-08T06:31:55;27.67;;;16.70;;
17947;SDS011;9099;47.958;11.366;2024-03-08T06:34:23;24.50;;;14.67;;
17947;SDS011;9099;47.958;11.366;2024-03-08T06:36:54;23.10;;;14.37;;
17947;SDS011;9099;47.958;11.366;2024-03-08T06:39:27;22.13;;;14.80;;
17947;SDS011;9099;47.958;11.366;2024-03-08T06:42:01;19.53;;;12.60;;
17947;SDS011;9099;47.958;11.366;2024-03-08T06:44:31;23.13;;;15.10;;
17947;SDS011;9099;47.958;11.366;2024-03-08T06:47:00;23.13;;;14.30;;
17947;SDS011;9099;47.958;11.366;2024-03-08T06:49:27;23.13;;;14.33;;
17947;SDS011;9099;47.958;11.366;2024-03-08T06:51:59;22.97;;;13.67;;
17947;SDS011;9099;47.958;11.366;2024-03-08T06:54:28;18.87;;;12.80;;
17947;SDS011;9099;47.958;11.366;2024-03-08T06:56:55;21.97;;;13.70;;
17947;SDS011;9099;47.958;11.366;2024-03-08T06:59:22;20.83;;;12.90;;
17947;SDS011;9099;47.958;11.366;2024-03-08T07:01:49;23.20;;;13.83;;
17947;SDS011;9099;47.958;11.366;2024-03-08T07:04:16;18.77;;;12.17;;
17947;SDS011;9099;47.958;11.366;2024-03-08T07:06:45;23.07;;;15.30;;
17947;SDS011;9099;47.958;11.366;2024-03-08T07:09:14;18.90;;;12.63;;
17947;SDS011;9099;47.958;11.366;2024-03-08T07:11:43;19.97;;;13.57;;
17947;SDS011;9099;47.958;11.366;2024-03-08T07:14:10;20.73;;;13.37;;
17947;SDS011;9099;47.958;11.366;2024-03-08T07:16:36;18.43;;;12.13;;
17947;SDS011;9099;47.958;11.366;2024-03-08T07:19:04;18.63;;;11.80;;
17947;SDS011;9099;47.958;11.366;2024-03-08T07:21:31;19.33;;;13.67;;
17947;SDS011;9099;47.958;11.366;2024-03-08T07:23:58;18.60;;;12.93;;
17947;SDS011;9099;47.958;11.366;2024-03-08T07:26:50;20.57;;;12.97;;
17947;SDS011;9099;47.958;11.366;2024-03-08T07:29:17;20.57;;;12.90;;
17947;SDS011;9099;47.958;11.366;2024-03-08T07:31:44;19.60;;;13.40;;
17947;SDS011;9099;47.958;11.366;2024-03-08T07:34:20;18.97;;;12.23;;
17947;SDS011;9099;47.958;11.366;2024-03-08T07:36:47;19.73;;;12.80;;
17947;SDS011;9099;47.958;11.366;2024-03-08T07:39:15;19.80;;;12.93;;
17947;SDS011;9099;47.958;11.366;2024-03-08T07:41:44;17.53;;;12.50;;
17947;SDS011;9099;47.958;11.366;2024-03-08T07:44:12;19.73;;;12.97;;
17947;SDS011;9099;47.958;11.366;2024-03-08T07:46:39;21.13;;;13.17;;
17947;SDS011;9099;47.958;11.366;2024-03-08T07:49:06;20.00;;;12.13;;
17947;SDS011;9099;47.958;11.366;2024-03-08T07:51:36;20.93;;;13.77;;
17947;SDS011;9099;47.958;11.366;2024-03-08T07:54:02;19.90;;;12.67;;
17947;SDS011;9099;47.958;11.366;2024-03-08T07:56:29;18.00;;;12.30;;
17947;SDS011;9099;47.958;11.366;2024-03-08T07:58:56;19.27;;;12.10;;
17947;SDS011;9099;47.958;11.366;2024-03-08T08:01:24;15.47;;;11.47;;
17947;SDS011;9099;47.958;11.366;2024-03-08T08:03:51;15.10;;;11.67;;
17947;SDS011;9099;47.958;11.366;2024-03-08T08:06:18;20.73;;;13.77;;
17947;SDS011;9099;47.958;11.366;2024-03-08T08:08:45;20.87;;;13.63;;
17947;SDS011;9099;47.958;11.366;2024-03-08T08:11:12;28.17;;;15.57;;
17947;SDS011;9099;47.958;11.366;2024-03-08T08:13:40;24.20;;;12.97;;
17947;SDS011;9099;47.958;11.366;2024-03-08T08:16:08;25.57;;;14.53;;
17947;SDS011;9099;47.958;11.366;2024-03-08T08:18:36;20.43;;;12.80;;
17947;SDS011;9099;47.958;11.366;2024-03-08T08:21:04;17.83;;;11.13;;
17947;SDS011;9099;47.958;11.366;2024-03-08T08:23:31;18.73;;;11.97;;
17947;SDS011;9099;47.958;11.366;2024-03-08T08:25:58;15.70;;;11.03;;
17947;SDS011;9099;47.958;11.366;2024-03-08T08:28:26;20.83;;;12.97;;
17947;SDS011;9099;47.958;11.366;2024-03-08T08:30:53;18.53;;;11.93;;
17947;SDS011;9099;47.958;11.366;2024-03-08T08:33:20;15.00;;;11.93;;
17947;SDS011;9099;47.958;11.366;2024-03-08T08:35:48;18.20;;;11.73;;
17947;SDS011;9099;47.958;11.366;2024-03-08T08:38:18;23.93;;;14.37;;
17947;SDS011;9099;47.958;11.366;2024-03-08T08:40:46;21.42;;;12.98;;
17947;SDS011;9099;47.958;11.366;2024-03-08T08:43:13;13.50;;;10.53;;
17947;SDS011;9099;47.958;11.366;2024-03-08T08:49:02;13.68;;;10.52;;
17947;SDS011;9099;47.958;11.366;2024-03-08T08:51:30;16.02;;;11.63;;
17947;SDS011;9099;47.958;11.366;2024-03-08T08:53:58;14.00;;;11.52;;
17947;SDS011;9099;47.958;11.366;2024-03-08T08:56:25;15.80;;;10.85;;
17947;SDS011;9099;47.958;11.366;2024-03-08T08:58:53;14.40;;;11.48;;
17947;SDS011;9099;47.958;11.366;2024-03-08T09:01:20;13.65;;;11.02;;
17947;SDS011;9099;47.958;11.366;2024-03-08T09:03:47;13.48;;;10.80;;
17947;SDS011;9099;47.958;11.366;2024-03-08T09:06:15;12.70;;;10.68;;
17947;SDS011;9099;47.958;11.366;2024-03-08T09:08:44;13.45;;;10.85;;
17947;SDS011;9099;47.958;11.366;2024-03-08T09:11:11;14.07;;;10.35;;
17947;SDS011;9099;47.958;11.366;2024-03-08T09:13:38;26.73;;;12.20;;
17947;SDS011;9099;47.958;11.366;2024-03-08T09:16:05;11.85;;;10.63;;
17947;SDS011;9099;47.958;11.366;2024-03-08T09:18:32;12.13;;;10.82;;
17947;SDS011;9099;47.958;11.366;2024-03-08T09:21:00;12.07;;;10.70;;
17947;SDS011;9099;47.958;11.366;2024-03-08T09:23:28;11.40;;;10.27;;
17947;SDS011;9099;47.958;11.366;2024-03-08T09:25:56;13.20;;;10.73;;
17947;SDS011;9099;47.958;11.366;2024-03-08T09:28:23;12.80;;;10.55;;
17947;SDS011;9099;47.958;11.366;2024-03-08T09:30:52;10.18;;;9.25;;
17947;SDS011;9099;47.958;11.366;2024-03-08T09:33:19;10.43;;;9.38;;
17947;SDS011;9099;47.958;11.366;2024-03-08T09:35:47;12.63;;;10.43;;
17947;SDS011;9099;47.958;11.366;2024-03-08T09:38:14;15.30;;;11.18;;
17947;SDS011;9099;47.958;11.366;2024-03-08T09:40:41;11.05;;;9.95;;
17947;SDS011;9099;47.958;11.366;2024-03-08T09:43:09;11.05;;;9.95;;
17947;SDS011;9099;47.958;11.366;2024-03-08T09:45:37;11.50;;;10.30;;
17947;SDS011;9099;47.958;11.366;2024-03-08T09:48:07;12.02;;;10.52;;
17947;SDS011;9099;47.958;11.366;2024-03-08T09:50:39;11.55;;;10.35;;
17947;SDS011;9099;47.958;11.366;2024-03-08T09:53:06;11.07;;;9.98;;
17947;SDS011;9099;47.958;11.366;2024-03-08T09:55:34;11.68;;;10.60;;
17947;SDS011;9099;47.958;11.366;2024-03-08T09:58:02;11.70;;;10.63;;
17947;SDS011;9099;47.958;11.366;2024-03-08T10:01:02;11.07;;;9.98;;
17947;SDS011;9099;47.958;11.366;2024-03-08T10:03:31;10.80;;;9.70;;
17947;SDS011;9099;47.958;11.366;2024-03-08T10:05:58;10.30;;;9.40;;
17947;SDS011;9099;47.958;11.366;2024-03-08T10:08:26;11.25;;;10.23;;
17947;SDS011;9099;47.958;11.366;2024-03-08T10:10:54;10.27;;;9.27;;
17947;SDS011;9099;47.958;11.366;2024-03-08T10:13:23;10.18;;;9.18;;
17947;SDS011;9099;47.958;11.366;2024-03-08T10:15:52;10.32;;;9.32;;
17947;SDS011;9099;47.958;11.366;2024-03-08T10:18:20;11.40;;;10.43;;
17947;SDS011;9099;47.958;11.366;2024-03-08T10:20:53;11.43;;;10.30;;
17947;SDS011;9099;47.958;11.366;2024-03-08T10:23:30;9.93;;;9.02;;
17947;SDS011;9099;47.958;11.366;2024-03-08T10:26:01;10.57;;;9.68;;
17947;SDS011;9099;47.958;11.366;2024-03-08T10:28:36;11.88;;;10.27;;
17947;SDS011;9099;47.958;11.366;2024-03-08T10:31:03;10.23;;;9.30;;
17947;SDS011;9099;47.958;11.366;2024-03-08T10:33:32;11.48;;;10.02;;
17947;SDS011;9099;47.958;11.366;2024-03-08T10:35:59;11.05;;;9.95;;
17947;SDS011;9099;47.958;11.366;2024-03-08T10:38:26;9.77;;;8.82;;
17947;SDS011;9099;47.958;11.366;2024-03-08T10:40:57;10.57;;;9.65;;
17947;SDS011;9099;47.958;11.366;2024-03-08T10:43:25;11.05;;;9.95;;
17947;SDS011;9099;47.958;11.366;2024-03-08T10:45:56;11.77;;;10.57;;
17947;SDS011;9099;47.958;11.366;2024-03-08T10:48:34;9.55;;;8.65;;
17947;SDS011;9099;47.958;11.366;2024-03-08T10:51:09;11.00;;;9.85;;
17947;SDS011;9099;47.958;11.366;2024-03-08T10:53:38;10.35;;;9.35;;
17947;SDS011;9099;47.958;11.366;2024-03-08T10:56:06;10.40;;;9.38;;
17947;SDS011;9099;47.958;11.366;2024-03-08T10:58:35;12.38;;;10.13;;
17947;SDS011;9099;47.958;11.366;2024-03-08T11:01:03;10.50;;;9.50;;
17947;SDS011;9099;47.958;11.366;2024-03-08T11:03:45;10.82;;;9.75;;
17947;SDS011;9099;47.958;11.366;2024-03-08T11:06:14;10.57;;;9.60;;
17947;SDS011;9099;47.958;11.366;2024-03-08T11:08:42;10.95;;;9.85;;
17947;SDS011;9099;47.958;11.366;2024-03-08T11:11:23;10.88;;;9.88;;
17947;SDS011;9099;47.958;11.366;2024-03-08T11:13:55;10.75;;;9.75;;
17947;SDS011;9099;47.958;11.366;2024-03-08T11:16:36;10.13;;;9.02;;
17947;SDS011;9099;47.958;11.366;2024-03-08T11:19:22;10.43;;;9.35;;
17947;SDS011;9099;47.958;11.366;2024-03-08T11:21:56;10.93;;;9.68;;
17947;SDS011;9099;47.958;11.366;2024-03-08T11:24:24;10.38;;;9.43;;
17947;SDS011;9099;47.958;11.366;2024-03-08T11:26:56;10.10;;;8.75;;
17947;SDS011;9099;47.958;11.366;2024-03-08T11:29:36;10.10;;;9.20;;
17947;SDS011;9099;47.958;11.366;2024-03-08T11:32:05;10.35;;;9.27;;
17947;SDS011;9099;47.958;11.366;2024-03-08T11:34:37;9.10;;;8.27;;
17947;SDS011;9099;47.958;11.366;2024-03-08T11:37:05;10.00;;;8.93;;
17947;SDS011;9099;47.958;11.366;2024-03-08T11:39:38;10.57;;;9.57;;
17947;SDS011;9099;47.958;11.366;2024-03-08T11:42:05;9.93;;;9.02;;
17947;SDS011;9099;47.958;11.366;2024-03-08T11:44:33;10.02;;;8.98;;
17947;SDS011;9099;47.958;11.366;2024-03-08T11:47:01;11.70;;;8.60;;
17947;SDS011;9099;47.958;11.366;2024-03-08T11:49:31;9.23;;;8.13;;
17947;SDS011;9099;47.958;11.366;2024-03-08T11:51:59;9.70;;;8.70;;
17947;SDS011;9099;47.958;11.366;2024-03-08T11:54:28;10.63;;;9.55;;
17947;SDS011;9099;47.958;11.366;2024-03-08T11:56:55;11.70;;;9.45;;
17947;SDS011;9099;47.958;11.366;2024-03-08T11:59:25;9.43;;;8.52;;
17947;SDS011;9099;47.958;11.366;2024-03-08T12:01:58;10.10;;;8.52;;
17947;SDS011;9099;47.958;11.366;2024-03-08T12:04:27;10.30;;;9.20;;
17947;SDS011;9099;47.958;11.366;2024-03-08T12:06:53;11.52;;;9.73;;
17947;SDS011;9099;47.958;11.366;2024-03-08T12:09:22;10.48;;;9.10;;
17947;SDS011;9099;47.958;11.366;2024-03-08T12:11:49;9.73;;;8.73;;
17947;SDS011;9099;47.958;11.366;2024-03-08T12:14:16;9.88;;;8.90;;
17947;SDS011;9099;47.958;11.366;2024-03-08T12:16:44;9.07;;;8.23;;
17947;SDS011;9099;47.958;11.366;2024-03-08T12:19:10;10.13;;;8.50;;
17947;SDS011;9099;47.958;11.366;2024-03-08T12:21:38;9.60;;;8.60;;
17947;SDS011;9099;47.958;11.366;2024-03-08T12:24:13;9.48;;;8.23;;
17947;SDS011;9099;47.958;11.366;2024-03-08T12:26:43;10.10;;;8.90;;
17947;SDS011;9099;47.958;11.366;2024-03-08T12:29:16;9.88;;;8.88;;
17947;SDS011;9099;47.958;11.366;2024-03-08T12:31:45;10.70;;;9.57;;
17947;SDS011;9099;47.958;11.366;2024-03-08T12:34:12;11.02;;;8.15;;
17947;SDS011;9099;47.958;11.366;2024-03-08T12:36:44;9.65;;;8.63;;
17947;SDS011;9099;47.958;11.366;2024-03-08T12:39:12;9.10;;;8.20;;
17947;SDS011;9099;47.958;11.366;2024-03-08T12:41:43;18.52;;;10.05;;
17947;SDS011;9099;47.958;11.366;2024-03-08T12:44:11;9.90;;;8.63;;
17947;SDS011;9099;47.958;11.366;2024-03-08T12:46:38;9.10;;;8.20;;
17947;SDS011;9099;47.958;11.366;2024-03-08T12:49:07;11.40;;;9.25;;
17947;SDS011;9099;47.958;11.366;2024-03-08T12:51:35;9.13;;;8.23;;
17947;SDS011;9099;47.958;11.366;2024-03-08T12:54:03;10.30;;;8.32;;
17947;SDS011;9099;47.958;11.366;2024-03-08T12:56:33;9.15;;;8.25;;
17947;SDS011;9099;47.958;11.366;2024-03-08T12:59:03;8.75;;;7.55;;
17947;SDS011;9099;47.958;11.366;2024-03-08T13:01:31;9.50;;;8.32;;
17947;SDS011;9099;47.958;11.366;2024-03-08T13:03:58;9.18;;;7.63;;
17947;SDS011;9099;47.958;11.366;2024-03-08T13:06:27;9.73;;;8.55;;
17947;SDS011;9099;47.958;11.366;2024-03-08T13:08:54;9.57;;;8.68;;
17947;SDS011;9099;47.958;11.366;2024-03-08T13:11:21;8.73;;;7.82;;
17947;SDS011;9099;47.958;11.366;2024-03-08T13:13:48;11.40;;;9.20;;
17947;SDS011;9099;47.958;11.366;2024-03-08T13:16:16;9.50;;;8.50;;
17947;SDS011;9099;47.958;11.366;2024-03-08T13:18:44;9.80;;;7.43;;
17947;SDS011;9099;47.958;11.366;2024-03-08T13:21:13;10.75;;;7.90;;
17947;SDS011;9099;47.958;11.366;2024-03-08T13:23:43;8.48;;;7.65;;
17947;SDS011;9099;47.958;11.366;2024-03-08T13:26:14;8.63;;;7.72;;
17947;SDS011;9099;47.958;11.366;2024-03-08T13:28:42;12.10;;;9.60;;
17947;SDS011;9099;47.958;11.366;2024-03-08T13:31:09;10.80;;;9.63;;
17947;SDS011;9099;47.958;11.366;2024-03-08T13:33:37;10.40;;;9.30;;
17947;SDS011;9099;47.958;11.366;2024-03-08T13:36:06;10.82;;;9.10;;
17947;SDS011;9099;47.958;11.366;2024-03-08T13:38:39;10.98;;;9.32;;
17947;SDS011;9099;47.958;11.366;2024-03-08T13:41:08;11.45;;;9.10;;
17947;SDS011;9099;47.958;11.366;2024-03-08T13:43:36;11.93;;;9.82;;
17947;SDS011;9099;47.958;11.366;2024-03-08T13:46:03;10.27;;;8.63;;
17947;SDS011;9099;47.958;11.366;2024-03-08T13:48:32;10.00;;;8.57;;
17947;SDS011;9099;47.958;11.366;2024-03-08T13:51:00;13.38;;;9.57;;
17947;SDS011;9099;47.958;11.366;2024-03-08T13:53:27;10.15;;;9.00;;
17947;SDS011;9099;47.958;11.366;2024-03-08T13:55:54;11.13;;;9.55;;
17947;SDS011;9099;47.958;11.366;2024-03-08T13:58:21;12.85;;;10.48;;
17947;SDS011;9099;47.958;11.366;2024-03-08T14:00:49;10.93;;;9.68;;
17947;SDS011;9099;47.958;11.366;2024-03-08T14:03:16;11.10;;;9.90;;
17947;SDS011;9099;47.958;11.366;2024-03-08T14:05:43;12.48;;;9.60;;
17947;SDS011;9099;47.958;11.366;2024-03-08T14:08:13;11.48;;;9.20;;
17947;SDS011;9099;47.958;11.366;2024-03-08T14:10:41;13.27;;;9.95;;
17947;SDS011;9099;47.958;11.366;2024-03-08T14:13:08;12.00;;;10.20;;
17947;SDS011;9099;47.958;11.366;2024-03-08T14:15:36;12.27;;;10.10;;
17947;SDS011;9099;47.958;11.366;2024-03-08T14:18:07;13.13;;;10.57;;
17947;SDS011;9099;47.958;11.366;2024-03-08T14:20:34;13.18;;;9.70;;
17947;SDS011;9099;47.958;11.366;2024-03-08T14:23:01;11.60;;;10.32;;
17947;SDS011;9099;47.958;11.366;2024-03-08T14:25:32;11.98;;;10.65;;
17947;SDS011;9099;47.958;11.366;2024-03-08T14:27:59;11.55;;;10.35;;
17947;SDS011;9099;47.958;11.366;2024-03-08T14:30:29;11.38;;;10.18;;
17947;SDS011;9099;47.958;11.366;2024-03-08T14:33:00;11.02;;;9.65;;
17947;SDS011;9099;47.958;11.366;2024-03-08T14:35:27;11.10;;;9.75;;
17947;SDS011;9099;47.958;11.366;2024-03-08T14:37:54;12.70;;;10.02;;
17947;SDS011;9099;47.958;11.366;2024-03-08T14:40:22;11.48;;;9.07;;
17947;SDS011;9099;47.958;11.366;2024-03-08T14:42:50;9.68;;;8.55;;
17947;SDS011;9099;47.958;11.366;2024-03-08T14:45:17;10.80;;;8.50;;